sensor_id;sensor_type;location;lat;lon;timestamp;P1;durP1;ratioP1;P2;durP2;ratioP2
20910;SDS011;10615;42.702;23.314;2023-03-01T00:00:16;4.07;;;3.67;;
20910;SDS011;10615;42.702;23.314;2023-03-01T00:01:19;4.68;;;4.10;;
20910;SDS011;10615;42.702;23.314;2023-03-01T00:02:21;4.60;;;3.70;;
20910;SDS011;10615;42.702;23.314;2023-03-01T00:03:22;4.63;;;3.90;;
20910;SDS011;10615;42.702;23.314;2023-03-01T00:04:23;4.40;;;4.00;;
20910;SDS011;10615;42.702;23.314;2023-03-01T00:05:23;4.32;;;3.90;;
20910;SDS011;10615;42.702;23.314;2023-03-01T00:06:24;5.15;;;4.22;;
20910;SDS011;10615;42.702;23.314;2023-03-01T00:07:25;4.45;;;3.97;;
20910;SDS011;10615;42.702;23.314;2023-03-01T00:08:26;5.10;;;4.13;;
20910;SDS011;10615;42.702;23.314;2023-03-01T00:09:27;4.50;;;4.03;;
20910;SDS011;10615;42.702;23.314;2023-03-01T00:10:28;4.22;;;3.83;;
20910;SDS011;10615;42.702;23.314;2023-03-01T00:11:29;6.93;;;4.25;;
20910;SDS011;10615;42.702;23.314;2023-03-01T00:12:32;4.53;;;3.70;;
20910;SDS011;10615;42.702;23.314;2023-03-01T00:13:33;5.13;;;4.07;;
20910;SDS011;10615;42.702;23.314;2023-03-01T00:14:35;4.78;;;3.75;;
20910;SDS011;10615;42.702;23.314;2023-03-01T00:15:39;4.30;;;3.80;;
20910;SDS011;10615;42.702;23.314;2023-03-01T00:16:42;4.03;;;3.42;;
20910;SDS011;10615;42.702;23.314;2023-03-01T00:17:43;3.70;;;3.30;;
20910;SDS011;10615;42.702;23.314;2023-03-01T00:18:44;3.70;;;3.40;;
20910;SDS011;10615;42.702;23.314;2023-03-01T00:19:45;3.80;;;3.25;;
20910;SDS011;10615;42.702;23.314;2023-03-01T00:20:49;4.57;;;3.22;;
20910;SDS011;10615;42.702;23.314;2023-03-01T00:21:51;3.42;;;3.03;;
20910;SDS011;10615;42.702;23.314;2023-03-01T00:22:52;3.75;;;3.30;;
20910;SDS011;10615;42.702;23.314;2023-03-01T00:23:53;3.65;;;3.00;;
20910;SDS011;10615;42.702;23.314;2023-03-01T00:24:54;4.05;;;3.20;;
20910;SDS011;10615;42.702;23.314;2023-03-01T00:25:55;4.88;;;3.20;;
20910;SDS011;10615;42.702;23.314;2023-03-01T00:26:55;3.70;;;3.20;;
20910;SDS011;10615;42.702;23.314;2023-03-01T00:27:56;5.00;;;3.13;;
20910;SDS011;10615;42.702;23.314;2023-03-01T00:28:57;3.22;;;2.90;;
20910;SDS011;10615;42.702;23.314;2023-03-01T00:29:59;3.40;;;3.10;;
20910;SDS011;10615;42.702;23.314;2023-03-01T00:31:07;3.42;;;2.80;;
20910;SDS011;10615;42.702;23.314;2023-03-01T00:32:13;3.63;;;3.15;;
20910;SDS011;10615;42.702;23.314;2023-03-01T00:33:13;4.75;;;3.10;;
20910;SDS011;10615;42.702;23.314;2023-03-01T00:34:14;3.08;;;2.67;;
20910;SDS011;10615;42.702;23.314;2023-03-01T00:35:15;2.85;;;2.63;;
20910;SDS011;10615;42.702;23.314;2023-03-01T00:36:15;3.75;;;2.83;;
20910;SDS011;10615;42.702;23.314;2023-03-01T00:37:16;4.00;;;3.00;;
20910;SDS011;10615;42.702;23.314;2023-03-01T00:38:16;2.90;;;2.60;;
20910;SDS011;10615;42.702;23.314;2023-03-01T00:39:17;2.97;;;2.60;;
20910;SDS011;10615;42.702;23.314;2023-03-01T00:40:18;3.53;;;2.80;;
20910;SDS011;10615;42.702;23.314;2023-03-01T00:41:20;3.25;;;2.65;;
20910;SDS011;10615;42.702;23.314;2023-03-01T00:42:22;3.03;;;2.72;;
20910;SDS011;10615;42.702;23.314;2023-03-01T00:43:23;3.28;;;2.65;;
20910;SDS011;10615;42.702;23.314;2023-03-01T00:44:23;3.05;;;2.75;;
20910;SDS011;10615;42.702;23.314;2023-03-01T00:45:24;3.33;;;2.70;;
20910;SDS011;10615;42.702;23.314;2023-03-01T00:46:26;3.55;;;2.90;;
20910;SDS011;10615;42.702;23.314;2023-03-01T00:47:29;3.20;;;2.90;;
20910;SDS011;10615;42.702;23.314;2023-03-01T00:48:30;4.32;;;2.80;;
20910;SDS011;10615;42.702;23.314;2023-03-01T00:49:30;3.72;;;3.10;;
20910;SDS011;10615;42.702;23.314;2023-03-01T00:50:31;3.10;;;2.80;;
20910;SDS011;10615;42.702;23.314;2023-03-01T00:51:32;3.83;;;3.13;;
20910;SDS011;10615;42.702;23.314;2023-03-01T00:52:33;2.92;;;2.65;;
20910;SDS011;10615;42.702;23.314;2023-03-01T00:53:34;3.65;;;3.00;;
20910;SDS011;10615;42.702;23.314;2023-03-01T00:54:35;3.03;;;2.72;;
20910;SDS011;10615;42.702;23.314;2023-03-01T00:55:35;3.33;;;2.70;;
20910;SDS011;10615;42.702;23.314;2023-03-01T00:56:36;2.92;;;2.70;;
20910;SDS011;10615;42.702;23.314;2023-03-01T00:57:37;3.30;;;3.00;;
20910;SDS011;10615;42.702;23.314;2023-03-01T00:58:38;3.72;;;2.78;;
20910;SDS011;10615;42.702;23.314;2023-03-01T00:59:39;2.92;;;2.60;;
20910;SDS011;10615;42.702;23.314;2023-03-01T01:00:40;3.58;;;2.70;;
20910;SDS011;10615;42.702;23.314;2023-03-01T01:01:40;3.10;;;2.80;;
20910;SDS011;10615;42.702;23.314;2023-03-01T01:02:41;3.17;;;2.55;;
20910;SDS011;10615;42.702;23.314;2023-03-01T01:03:43;3.00;;;2.70;;
20910;SDS011;10615;42.702;23.314;2023-03-01T01:04:48;3.33;;;2.60;;
20910;SDS011;10615;42.702;23.314;2023-03-01T01:05:49;2.92;;;2.63;;
20910;SDS011;10615;42.702;23.314;2023-03-01T01:06:49;2.80;;;2.60;;
20910;SDS011;10615;42.702;23.314;2023-03-01T01:07:50;4.82;;;2.67;;
20910;SDS011;10615;42.702;23.314;2023-03-01T01:08:51;2.72;;;2.53;;
20910;SDS011;10615;42.702;23.314;2023-03-01T01:09:53;3.03;;;2.72;;
20910;SDS011;10615;42.702;23.314;2023-03-01T01:10:53;2.63;;;2.42;;
20910;SDS011;10615;42.702;23.314;2023-03-01T01:11:54;3.25;;;2.70;;
20910;SDS011;10615;42.702;23.314;2023-03-01T01:12:54;3.25;;;2.88;;
20910;SDS011;10615;42.702;23.314;2023-03-01T01:13:55;3.42;;;2.58;;
20910;SDS011;10615;42.702;23.314;2023-03-01T01:14:56;3.38;;;2.80;;
20910;SDS011;10615;42.702;23.314;2023-03-01T01:16:00;3.00;;;2.70;;
20910;SDS011;10615;42.702;23.314;2023-03-01T01:17:01;2.95;;;2.65;;
20910;SDS011;10615;42.702;23.314;2023-03-01T01:18:02;3.00;;;2.70;;
20910;SDS011;10615;42.702;23.314;2023-03-01T01:19:03;2.90;;;2.60;;
20910;SDS011;10615;42.702;23.314;2023-03-01T01:20:04;3.08;;;2.63;;
20910;SDS011;10615;42.702;23.314;2023-03-01T01:21:09;3.20;;;2.90;;
20910;SDS011;10615;42.702;23.314;2023-03-01T01:22:11;2.70;;;2.50;;
20910;SDS011;10615;42.702;23.314;2023-03-01T01:23:12;3.15;;;2.80;;
20910;SDS011;10615;42.702;23.314;2023-03-01T01:24:13;3.25;;;2.80;;
20910;SDS011;10615;42.702;23.314;2023-03-01T01:25:14;3.90;;;2.60;;
20910;SDS011;10615;42.702;23.314;2023-03-01T01:26:18;2.55;;;2.35;;
20910;SDS011;10615;42.702;23.314;2023-03-01T01:27:21;3.28;;;2.78;;
20910;SDS011;10615;42.702;23.314;2023-03-01T01:28:21;3.53;;;2.80;;
20910;SDS011;10615;42.702;23.314;2023-03-01T01:29:22;3.00;;;2.60;;
20910;SDS011;10615;42.702;23.314;2023-03-01T01:30:23;3.13;;;2.83;;
20910;SDS011;10615;42.702;23.314;2023-03-01T01:31:23;4.47;;;2.67;;
20910;SDS011;10615;42.702;23.314;2023-03-01T01:32:24;3.33;;;2.80;;
20910;SDS011;10615;42.702;23.314;2023-03-01T01:33:25;2.50;;;2.30;;
20910;SDS011;10615;42.702;23.314;2023-03-01T01:34:26;2.80;;;2.40;;
20910;SDS011;10615;42.702;23.314;2023-03-01T01:35:27;2.67;;;2.47;;
20910;SDS011;10615;42.702;23.314;2023-03-01T01:36:28;2.97;;;2.67;;
20910;SDS011;10615;42.702;23.314;2023-03-01T01:37:29;2.78;;;2.58;;
20910;SDS011;10615;42.702;23.314;2023-03-01T01:38:31;2.67;;;2.42;;
20910;SDS011;10615;42.702;23.314;2023-03-01T01:39:32;3.03;;;2.70;;
20910;SDS011;10615;42.702;23.314;2023-03-01T01:40:32;2.38;;;2.17;;
20910;SDS011;10615;42.702;23.314;2023-03-01T01:41:33;2.60;;;2.25;;
20910;SDS011;10615;42.702;23.314;2023-03-01T01:42:34;2.72;;;2.38;;
20910;SDS011;10615;42.702;23.314;2023-03-01T01:43:35;2.53;;;2.13;;
20910;SDS011;10615;42.702;23.314;2023-03-01T01:44:47;2.83;;;2.40;;
20910;SDS011;10615;42.702;23.314;2023-03-01T01:45:48;2.80;;;2.30;;
20910;SDS011;10615;42.702;23.314;2023-03-01T01:46:55;2.30;;;2.10;;
20910;SDS011;10615;42.702;23.314;2023-03-01T01:48:06;2.50;;;2.30;;
20910;SDS011;10615;42.702;23.314;2023-03-01T01:51:12;2.40;;;2.05;;
20910;SDS011;10615;42.702;23.314;2023-03-01T01:52:19;2.65;;;2.00;;
20910;SDS011;10615;42.702;23.314;2023-03-01T01:53:31;2.30;;;2.10;;
20910;SDS011;10615;42.702;23.314;2023-03-01T01:55:07;2.10;;;1.90;;
20910;SDS011;10615;42.702;23.314;2023-03-01T01:55:59;2.25;;;2.05;;
20910;SDS011;10615;42.702;23.314;2023-03-01T01:57:03;2.20;;;2.00;;
20910;SDS011;10615;42.702;23.314;2023-03-01T01:58:09;2.17;;;1.98;;
20910;SDS011;10615;42.702;23.314;2023-03-01T01:59:13;1.95;;;1.75;;
20910;SDS011;10615;42.702;23.314;2023-03-01T02:00:16;2.40;;;2.20;;
20910;SDS011;10615;42.702;23.314;2023-03-01T02:01:20;2.13;;;1.90;;
20910;SDS011;10615;42.702;23.314;2023-03-01T02:02:21;1.80;;;1.70;;
20910;SDS011;10615;42.702;23.314;2023-03-01T02:03:25;1.83;;;1.63;;
20910;SDS011;10615;42.702;23.314;2023-03-01T02:04:29;1.77;;;1.67;;
20910;SDS011;10615;42.702;23.314;2023-03-01T02:06:58;1.77;;;1.67;;
20910;SDS011;10615;42.702;23.314;2023-03-01T02:08:03;1.50;;;1.40;;
20910;SDS011;10615;42.702;23.314;2023-03-01T02:09:06;1.75;;;1.60;;
20910;SDS011;10615;42.702;23.314;2023-03-01T02:10:12;1.55;;;1.45;;
20910;SDS011;10615;42.702;23.314;2023-03-01T02:11:13;1.40;;;1.30;;
20910;SDS011;10615;42.702;23.314;2023-03-01T02:12:19;1.55;;;1.45;;
20910;SDS011;10615;42.702;23.314;2023-03-01T02:13:23;2.65;;;1.45;;
20910;SDS011;10615;42.702;23.314;2023-03-01T02:14:23;1.90;;;1.80;;
20910;SDS011;10615;42.702;23.314;2023-03-01T02:15:24;1.60;;;1.50;;
20910;SDS011;10615;42.702;23.314;2023-03-01T02:16:26;1.50;;;1.40;;
20910;SDS011;10615;42.702;23.314;2023-03-01T02:17:27;1.60;;;1.50;;
20910;SDS011;10615;42.702;23.314;2023-03-01T02:18:27;1.63;;;1.50;;
20910;SDS011;10615;42.702;23.314;2023-03-01T02:22:07;1.42;;;1.33;;
20910;SDS011;10615;42.702;23.314;2023-03-01T02:23:22;1.70;;;1.60;;
20910;SDS011;10615;42.702;23.314;2023-03-01T02:26:53;2.10;;;1.90;;
20910;SDS011;10615;42.702;23.314;2023-03-01T02:28:01;3.45;;;2.10;;
20910;SDS011;10615;42.702;23.314;2023-03-01T02:29:04;2.08;;;1.90;;
20910;SDS011;10615;42.702;23.314;2023-03-01T02:30:05;1.77;;;1.67;;
20910;SDS011;10615;42.702;23.314;2023-03-01T02:31:08;2.58;;;1.80;;
20910;SDS011;10615;42.702;23.314;2023-03-01T02:32:29;1.65;;;1.55;;
20910;SDS011;10615;42.702;23.314;2023-03-01T02:33:30;1.60;;;1.50;;
20910;SDS011;10615;42.702;23.314;2023-03-01T02:34:32;1.75;;;1.60;;
20910;SDS011;10615;42.702;23.314;2023-03-01T02:35:34;2.05;;;1.30;;
20910;SDS011;10615;42.702;23.314;2023-03-01T02:36:38;1.60;;;1.50;;
20910;SDS011;10615;42.702;23.314;2023-03-01T02:37:43;2.10;;;1.60;;
20910;SDS011;10615;42.702;23.314;2023-03-01T02:38:44;1.90;;;1.67;;
20910;SDS011;10615;42.702;23.314;2023-03-01T02:39:46;1.98;;;1.80;;
20910;SDS011;10615;42.702;23.314;2023-03-01T02:40:50;2.30;;;2.10;;
20910;SDS011;10615;42.702;23.314;2023-03-01T02:41:52;2.47;;;2.00;;
20910;SDS011;10615;42.702;23.314;2023-03-01T02:42:56;2.30;;;2.05;;
20910;SDS011;10615;42.702;23.314;2023-03-01T02:43:58;2.50;;;2.30;;
20910;SDS011;10615;42.702;23.314;2023-03-01T02:44:59;2.47;;;2.28;;
20910;SDS011;10615;42.702;23.314;2023-03-01T02:46:05;3.28;;;2.20;;
20910;SDS011;10615;42.702;23.314;2023-03-01T02:47:12;2.40;;;2.20;;
20910;SDS011;10615;42.702;23.314;2023-03-01T02:48:13;2.53;;;2.33;;
20910;SDS011;10615;42.702;23.314;2023-03-01T02:49:27;2.22;;;2.10;;
20910;SDS011;10615;42.702;23.314;2023-03-01T02:51:34;2.65;;;2.30;;
20910;SDS011;10615;42.702;23.314;2023-03-01T02:52:46;2.65;;;2.30;;
20910;SDS011;10615;42.702;23.314;2023-03-01T02:55:18;2.30;;;2.10;;
20910;SDS011;10615;42.702;23.314;2023-03-01T02:56:18;2.35;;;2.00;;
20910;SDS011;10615;42.702;23.314;2023-03-01T02:57:19;2.33;;;2.13;;
20910;SDS011;10615;42.702;23.314;2023-03-01T02:58:21;2.30;;;2.10;;
20910;SDS011;10615;42.702;23.314;2023-03-01T02:59:24;3.53;;;2.10;;
20910;SDS011;10615;42.702;23.314;2023-03-01T03:00:39;2.30;;;2.10;;
20910;SDS011;10615;42.702;23.314;2023-03-01T03:01:46;2.70;;;2.20;;
20910;SDS011;10615;42.702;23.314;2023-03-01T03:02:48;2.58;;;2.00;;
20910;SDS011;10615;42.702;23.314;2023-03-01T03:03:50;2.38;;;2.17;;
20910;SDS011;10615;42.702;23.314;2023-03-01T03:04:51;2.28;;;2.03;;
20910;SDS011;10615;42.702;23.314;2023-03-01T03:05:52;2.63;;;1.83;;
20910;SDS011;10615;42.702;23.314;2023-03-01T03:06:52;3.38;;;2.10;;
20910;SDS011;10615;42.702;23.314;2023-03-01T03:07:53;2.40;;;2.20;;
20910;SDS011;10615;42.702;23.314;2023-03-01T03:08:54;2.22;;;2.03;;
20910;SDS011;10615;42.702;23.314;2023-03-01T03:09:54;2.72;;;1.90;;
20910;SDS011;10615;42.702;23.314;2023-03-01T03:10:55;2.10;;;1.90;;
20910;SDS011;10615;42.702;23.314;2023-03-01T03:11:56;2.17;;;1.98;;
20910;SDS011;10615;42.702;23.314;2023-03-01T03:12:57;2.40;;;2.20;;
20910;SDS011;10615;42.702;23.314;2023-03-01T03:14:03;1.95;;;1.80;;
20910;SDS011;10615;42.702;23.314;2023-03-01T03:15:04;2.55;;;2.10;;
20910;SDS011;10615;42.702;23.314;2023-03-01T03:16:08;2.20;;;1.98;;
20910;SDS011;10615;42.702;23.314;2023-03-01T03:17:09;1.92;;;1.80;;
20910;SDS011;10615;42.702;23.314;2023-03-01T03:18:14;2.33;;;2.05;;
20910;SDS011;10615;42.702;23.314;2023-03-01T03:19:17;3.40;;;2.30;;
20910;SDS011;10615;42.702;23.314;2023-03-01T03:20:20;2.28;;;2.08;;
20910;SDS011;10615;42.702;23.314;2023-03-01T03:21:23;2.78;;;2.40;;
20910;SDS011;10615;42.702;23.314;2023-03-01T03:22:23;2.20;;;2.00;;
20910;SDS011;10615;42.702;23.314;2023-03-01T03:23:25;2.55;;;2.35;;
20910;SDS011;10615;42.702;23.314;2023-03-01T03:24:26;2.58;;;2.38;;
20910;SDS011;10615;42.702;23.314;2023-03-01T03:25:37;2.88;;;2.50;;
20910;SDS011;10615;42.702;23.314;2023-03-01T03:26:38;2.83;;;2.50;;
20910;SDS011;10615;42.702;23.314;2023-03-01T03:27:57;2.85;;;2.55;;
20910;SDS011;10615;42.702;23.314;2023-03-01T03:28:58;2.92;;;2.53;;
20910;SDS011;10615;42.702;23.314;2023-03-01T03:29:59;3.17;;;2.50;;
20910;SDS011;10615;42.702;23.314;2023-03-01T03:30:59;4.38;;;2.80;;
20910;SDS011;10615;42.702;23.314;2023-03-01T03:32:03;2.65;;;2.45;;
20910;SDS011;10615;42.702;23.314;2023-03-01T03:33:04;2.60;;;2.40;;
20910;SDS011;10615;42.702;23.314;2023-03-01T03:34:06;2.92;;;2.60;;
20910;SDS011;10615;42.702;23.314;2023-03-01T03:35:08;2.65;;;2.45;;
20910;SDS011;10615;42.702;23.314;2023-03-01T03:36:09;2.65;;;2.40;;
20910;SDS011;10615;42.702;23.314;2023-03-01T03:37:18;2.47;;;2.28;;
20910;SDS011;10615;42.702;23.314;2023-03-01T03:38:45;2.78;;;2.55;;
20910;SDS011;10615;42.702;23.314;2023-03-01T03:39:46;2.85;;;2.55;;
20910;SDS011;10615;42.702;23.314;2023-03-01T03:40:51;3.47;;;2.40;;
20910;SDS011;10615;42.702;23.314;2023-03-01T03:42:01;2.63;;;2.42;;
20910;SDS011;10615;42.702;23.314;2023-03-01T03:44:22;4.22;;;2.75;;
20910;SDS011;10615;42.702;23.314;2023-03-01T03:45:23;3.78;;;2.90;;
20910;SDS011;10615;42.702;23.314;2023-03-01T03:46:23;3.25;;;2.67;;
20910;SDS011;10615;42.702;23.314;2023-03-01T03:47:25;3.72;;;2.88;;
20910;SDS011;10615;42.702;23.314;2023-03-01T03:48:26;2.55;;;2.35;;
20910;SDS011;10615;42.702;23.314;2023-03-01T03:49:27;2.72;;;2.50;;
20910;SDS011;10615;42.702;23.314;2023-03-01T03:50:27;3.25;;;2.95;;
20910;SDS011;10615;42.702;23.314;2023-03-01T03:51:28;3.22;;;2.90;;
20910;SDS011;10615;42.702;23.314;2023-03-01T03:52:28;3.10;;;2.80;;
20910;SDS011;10615;42.702;23.314;2023-03-01T03:53:29;4.18;;;3.30;;
20910;SDS011;10615;42.702;23.314;2023-03-01T03:54:30;5.50;;;3.10;;
20910;SDS011;10615;42.702;23.314;2023-03-01T03:55:30;3.90;;;3.10;;
20910;SDS011;10615;42.702;23.314;2023-03-01T03:56:33;5.35;;;3.72;;
20910;SDS011;10615;42.702;23.314;2023-03-01T03:57:35;3.45;;;3.15;;
20910;SDS011;10615;42.702;23.314;2023-03-01T03:58:56;3.50;;;3.20;;
20910;SDS011;10615;42.702;23.314;2023-03-01T04:00:16;4.75;;;3.10;;
20910;SDS011;10615;42.702;23.314;2023-03-01T04:01:19;3.33;;;3.03;;
20910;SDS011;10615;42.702;23.314;2023-03-01T04:02:20;4.20;;;3.15;;
20910;SDS011;10615;42.702;23.314;2023-03-01T04:03:22;3.60;;;3.15;;
20910;SDS011;10615;42.702;23.314;2023-03-01T04:04:24;3.47;;;3.17;;
20910;SDS011;10615;42.702;23.314;2023-03-01T04:05:24;3.33;;;3.03;;
20910;SDS011;10615;42.702;23.314;2023-03-01T04:06:26;3.65;;;3.20;;
20910;SDS011;10615;42.702;23.314;2023-03-01T04:07:27;3.53;;;3.22;;
20910;SDS011;10615;42.702;23.314;2023-03-01T04:08:28;3.90;;;3.22;;
20910;SDS011;10615;42.702;23.314;2023-03-01T04:09:28;3.45;;;3.15;;
20910;SDS011;10615;42.702;23.314;2023-03-01T04:10:31;3.30;;;3.00;;
20910;SDS011;10615;42.702;23.314;2023-03-01T04:11:33;2.95;;;2.65;;
20910;SDS011;10615;42.702;23.314;2023-03-01T04:12:34;3.30;;;3.00;;
20910;SDS011;10615;42.702;23.314;2023-03-01T04:13:36;2.97;;;2.67;;
20910;SDS011;10615;42.702;23.314;2023-03-01T04:14:36;3.95;;;3.05;;
20910;SDS011;10615;42.702;23.314;2023-03-01T04:15:37;3.88;;;2.95;;
20910;SDS011;10615;42.702;23.314;2023-03-01T04:16:39;3.47;;;2.78;;
20910;SDS011;10615;42.702;23.314;2023-03-01T04:17:40;3.10;;;2.80;;
20910;SDS011;10615;42.702;23.314;2023-03-01T04:18:42;3.47;;;2.97;;
20910;SDS011;10615;42.702;23.314;2023-03-01T04:19:42;3.08;;;2.60;;
20910;SDS011;10615;42.702;23.314;2023-03-01T04:20:43;3.17;;;2.72;;
20910;SDS011;10615;42.702;23.314;2023-03-01T04:21:45;4.78;;;2.70;;
20910;SDS011;10615;42.702;23.314;2023-03-01T04:22:45;3.10;;;2.78;;
20910;SDS011;10615;42.702;23.314;2023-03-01T04:23:47;3.38;;;2.65;;
20910;SDS011;10615;42.702;23.314;2023-03-01T04:24:47;3.15;;;2.72;;
20910;SDS011;10615;42.702;23.314;2023-03-01T04:25:50;3.03;;;2.70;;
20910;SDS011;10615;42.702;23.314;2023-03-01T04:26:53;2.83;;;2.55;;
20910;SDS011;10615;42.702;23.314;2023-03-01T04:27:54;3.10;;;2.67;;
20910;SDS011;10615;42.702;23.314;2023-03-01T04:28:55;3.15;;;2.85;;
20910;SDS011;10615;42.702;23.314;2023-03-01T04:29:56;3.35;;;3.05;;
20910;SDS011;10615;42.702;23.314;2023-03-01T04:30:57;5.05;;;3.63;;
20910;SDS011;10615;42.702;23.314;2023-03-01T04:31:58;5.25;;;3.20;;
20910;SDS011;10615;42.702;23.314;2023-03-01T04:32:59;3.65;;;3.00;;
20910;SDS011;10615;42.702;23.314;2023-03-01T04:33:59;4.13;;;2.90;;
20910;SDS011;10615;42.702;23.314;2023-03-01T04:35:00;3.20;;;2.90;;
20910;SDS011;10615;42.702;23.314;2023-03-01T04:36:01;3.50;;;3.20;;
20910;SDS011;10615;42.702;23.314;2023-03-01T04:37:05;4.72;;;3.10;;
20910;SDS011;10615;42.702;23.314;2023-03-01T04:38:06;4.80;;;2.80;;
20910;SDS011;10615;42.702;23.314;2023-03-01T04:39:07;3.17;;;2.90;;
20910;SDS011;10615;42.702;23.314;2023-03-01T04:40:12;3.08;;;2.78;;
20910;SDS011;10615;42.702;23.314;2023-03-01T04:41:17;3.17;;;2.88;;
20910;SDS011;10615;42.702;23.314;2023-03-01T04:42:19;3.22;;;2.42;;
20910;SDS011;10615;42.702;23.314;2023-03-01T04:43:20;2.63;;;2.33;;
20910;SDS011;10615;42.702;23.314;2023-03-01T04:44:20;2.90;;;2.65;;
20910;SDS011;10615;42.702;23.314;2023-03-01T04:45:21;2.78;;;2.58;;
20910;SDS011;10615;42.702;23.314;2023-03-01T04:46:22;3.13;;;2.80;;
20910;SDS011;10615;42.702;23.314;2023-03-01T04:47:22;3.22;;;2.92;;
20910;SDS011;10615;42.702;23.314;2023-03-01T04:48:23;3.30;;;2.80;;
20910;SDS011;10615;42.702;23.314;2023-03-01T04:49:23;4.22;;;2.80;;
20910;SDS011;10615;42.702;23.314;2023-03-01T04:50:24;3.88;;;2.92;;
20910;SDS011;10615;42.702;23.314;2023-03-01T04:51:25;4.47;;;3.30;;
20910;SDS011;10615;42.702;23.314;2023-03-01T04:52:26;3.00;;;2.70;;
20910;SDS011;10615;42.702;23.314;2023-03-01T04:53:27;4.80;;;3.30;;
20910;SDS011;10615;42.702;23.314;2023-03-01T04:54:29;3.55;;;2.85;;
20910;SDS011;10615;42.702;23.314;2023-03-01T04:55:30;3.35;;;3.05;;
20910;SDS011;10615;42.702;23.314;2023-03-01T04:56:31;3.88;;;3.50;;
20910;SDS011;10615;42.702;23.314;2023-03-01T04:57:32;4.63;;;2.83;;
20910;SDS011;10615;42.702;23.314;2023-03-01T04:58:33;4.00;;;3.63;;
20910;SDS011;10615;42.702;23.314;2023-03-01T04:59:33;3.42;;;3.13;;
20910;SDS011;10615;42.702;23.314;2023-03-01T05:00:36;3.20;;;2.75;;
20910;SDS011;10615;42.702;23.314;2023-03-01T05:01:36;4.13;;;2.88;;
20910;SDS011;10615;42.702;23.314;2023-03-01T05:02:37;4.63;;;3.20;;
20910;SDS011;10615;42.702;23.314;2023-03-01T05:03:38;3.65;;;3.28;;
20910;SDS011;10615;42.702;23.314;2023-03-01T05:04:39;3.90;;;3.40;;
20910;SDS011;10615;42.702;23.314;2023-03-01T05:05:39;4.53;;;3.75;;
20910;SDS011;10615;42.702;23.314;2023-03-01T05:06:40;4.78;;;3.95;;
20910;SDS011;10615;42.702;23.314;2023-03-01T05:07:41;6.43;;;4.20;;
20910;SDS011;10615;42.702;23.314;2023-03-01T05:08:41;5.28;;;3.80;;
20910;SDS011;10615;42.702;23.314;2023-03-01T05:09:43;7.40;;;4.03;;
20910;SDS011;10615;42.702;23.314;2023-03-01T05:10:48;4.68;;;3.60;;
20910;SDS011;10615;42.702;23.314;2023-03-01T05:11:50;3.97;;;3.58;;
20910;SDS011;10615;42.702;23.314;2023-03-01T05:12:51;3.95;;;3.53;;
20910;SDS011;10615;42.702;23.314;2023-03-01T05:13:52;6.38;;;4.40;;
20910;SDS011;10615;42.702;23.314;2023-03-01T05:14:54;5.03;;;4.30;;
20910;SDS011;10615;42.702;23.314;2023-03-01T05:15:56;8.00;;;4.60;;
20910;SDS011;10615;42.702;23.314;2023-03-01T05:16:59;5.43;;;4.45;;
20910;SDS011;10615;42.702;23.314;2023-03-01T05:18:03;4.53;;;4.10;;
20910;SDS011;10615;42.702;23.314;2023-03-01T05:19:07;5.38;;;4.25;;
20910;SDS011;10615;42.702;23.314;2023-03-01T05:20:15;4.82;;;3.78;;
20910;SDS011;10615;42.702;23.314;2023-03-01T05:21:16;3.88;;;3.47;;
20910;SDS011;10615;42.702;23.314;2023-03-01T05:22:16;4.38;;;3.70;;
20910;SDS011;10615;42.702;23.314;2023-03-01T05:23:19;4.60;;;3.60;;
20910;SDS011;10615;42.702;23.314;2023-03-01T05:24:19;5.53;;;3.97;;
20910;SDS011;10615;42.702;23.314;2023-03-01T05:25:20;4.70;;;3.95;;
20910;SDS011;10615;42.702;23.314;2023-03-01T05:26:21;4.18;;;3.70;;
20910;SDS011;10615;42.702;23.314;2023-03-01T05:27:27;4.75;;;4.10;;
20910;SDS011;10615;42.702;23.314;2023-03-01T05:28:29;4.78;;;3.67;;
20910;SDS011;10615;42.702;23.314;2023-03-01T05:29:30;4.90;;;4.40;;
20910;SDS011;10615;42.702;23.314;2023-03-01T05:30:34;5.60;;;4.15;;
20910;SDS011;10615;42.702;23.314;2023-03-01T05:31:35;4.93;;;4.15;;
20910;SDS011;10615;42.702;23.314;2023-03-01T05:32:38;4.45;;;3.78;;
20910;SDS011;10615;42.702;23.314;2023-03-01T05:33:48;4.72;;;4.28;;
20910;SDS011;10615;42.702;23.314;2023-03-01T05:34:49;4.90;;;3.92;;
20910;SDS011;10615;42.702;23.314;2023-03-01T05:35:52;4.97;;;4.30;;
20910;SDS011;10615;42.702;23.314;2023-03-01T05:36:53;5.15;;;4.07;;
20910;SDS011;10615;42.702;23.314;2023-03-01T05:37:54;6.38;;;4.32;;
20910;SDS011;10615;42.702;23.314;2023-03-01T05:38:55;5.95;;;4.63;;
20910;SDS011;10615;42.702;23.314;2023-03-01T05:39:55;4.82;;;4.20;;
20910;SDS011;10615;42.702;23.314;2023-03-01T05:40:56;5.05;;;4.25;;
20910;SDS011;10615;42.702;23.314;2023-03-01T05:41:58;5.30;;;4.13;;
20910;SDS011;10615;42.702;23.314;2023-03-01T05:43:00;4.60;;;4.10;;
20910;SDS011;10615;42.702;23.314;2023-03-01T05:44:01;6.32;;;4.25;;
20910;SDS011;10615;42.702;23.314;2023-03-01T05:45:04;5.53;;;4.30;;
20910;SDS011;10615;42.702;23.314;2023-03-01T05:46:09;8.15;;;4.40;;
20910;SDS011;10615;42.702;23.314;2023-03-01T05:47:12;5.50;;;4.70;;
20910;SDS011;10615;42.702;23.314;2023-03-01T05:48:13;6.70;;;4.25;;
20910;SDS011;10615;42.702;23.314;2023-03-01T05:49:13;5.28;;;4.63;;
20910;SDS011;10615;42.702;23.314;2023-03-01T05:50:18;4.97;;;4.47;;
20910;SDS011;10615;42.702;23.314;2023-03-01T05:51:20;4.93;;;4.30;;
20910;SDS011;10615;42.702;23.314;2023-03-01T05:52:22;22.05;;;4.43;;
20910;SDS011;10615;42.702;23.314;2023-03-01T05:53:22;4.90;;;4.20;;
20910;SDS011;10615;42.702;23.314;2023-03-01T05:54:23;5.38;;;4.88;;
20910;SDS011;10615;42.702;23.314;2023-03-01T05:55:24;6.72;;;4.80;;
20910;SDS011;10615;42.702;23.314;2023-03-01T05:56:24;5.65;;;4.70;;
20910;SDS011;10615;42.702;23.314;2023-03-01T05:57:25;6.28;;;4.43;;
20910;SDS011;10615;42.702;23.314;2023-03-01T05:58:28;7.88;;;4.80;;
20910;SDS011;10615;42.702;23.314;2023-03-01T05:59:29;5.65;;;3.97;;
20910;SDS011;10615;42.702;23.314;2023-03-01T06:00:30;5.72;;;4.00;;
20910;SDS011;10615;42.702;23.314;2023-03-01T06:01:32;8.25;;;4.13;;
20910;SDS011;10615;42.702;23.314;2023-03-01T06:02:33;5.03;;;3.72;;
20910;SDS011;10615;42.702;23.314;2023-03-01T06:03:34;4.43;;;4.03;;
20910;SDS011;10615;42.702;23.314;2023-03-01T06:04:34;6.13;;;4.10;;
20910;SDS011;10615;42.702;23.314;2023-03-01T06:05:35;5.68;;;4.10;;
20910;SDS011;10615;42.702;23.314;2023-03-01T06:06:36;5.30;;;4.22;;
20910;SDS011;10615;42.702;23.314;2023-03-01T06:07:40;5.25;;;4.20;;
20910;SDS011;10615;42.702;23.314;2023-03-01T06:08:41;4.60;;;4.20;;
20910;SDS011;10615;42.702;23.314;2023-03-01T06:09:42;5.90;;;5.30;;
20910;SDS011;10615;42.702;23.314;2023-03-01T06:10:43;8.43;;;4.28;;
20910;SDS011;10615;42.702;23.314;2023-03-01T06:11:43;5.90;;;4.57;;
20910;SDS011;10615;42.702;23.314;2023-03-01T06:12:44;11.57;;;8.25;;
20910;SDS011;10615;42.702;23.314;2023-03-01T06:13:45;6.88;;;4.55;;
20910;SDS011;10615;42.702;23.314;2023-03-01T06:14:47;8.85;;;5.88;;
20910;SDS011;10615;42.702;23.314;2023-03-01T06:15:48;5.88;;;4.63;;
20910;SDS011;10615;42.702;23.314;2023-03-01T06:16:48;5.40;;;4.53;;
20910;SDS011;10615;42.702;23.314;2023-03-01T06:17:49;5.57;;;4.20;;
20910;SDS011;10615;42.702;23.314;2023-03-01T06:18:50;4.93;;;4.18;;
20910;SDS011;10615;42.702;23.314;2023-03-01T06:19:51;6.63;;;4.25;;
20910;SDS011;10615;42.702;23.314;2023-03-01T06:20:52;5.32;;;3.95;;
20910;SDS011;10615;42.702;23.314;2023-03-01T06:21:54;4.68;;;4.18;;